createdAt,value
2022-11-24T00:00:11.754Z,91.90
2022-11-24T00:03:00.798Z,91.90
2022-11-24T00:05:28.790Z,91.90
2022-11-24T00:07:56.955Z,92.00
2022-11-24T00:10:25.055Z,92.00
2022-11-24T00:12:52.978Z,92.10
2022-11-24T00:15:20.620Z,92.20
2022-11-24T00:17:48.929Z,92.20
2022-11-24T00:20:17.508Z,92.30
2022-11-24T00:22:45.420Z,92.40
2022-11-24T00:25:13.343Z,92.30
2022-11-24T00:27:41.754Z,92.30
2022-11-24T00:30:10.145Z,92.40
2022-11-24T00:32:38.076Z,92.40
2022-11-24T00:35:09.381Z,92.30
2022-11-24T00:37:37.450Z,92.20
2022-11-24T00:40:05.765Z,92.10
2022-11-24T00:42:33.938Z,92.00
2022-11-24T00:45:10.336Z,91.70
2022-11-24T00:47:41.853Z,91.50
2022-11-24T00:50:10.431Z,91.50
2022-11-24T00:52:38.625Z,91.40
2022-11-24T00:55:06.485Z,91.30
2022-11-24T00:57:35.862Z,91.30
2022-11-24T01:00:04.094Z,91.40
2022-11-24T01:02:32.342Z,91.30
2022-11-24T01:05:00.359Z,91.30
2022-11-24T01:07:28.237Z,91.50
2022-11-24T01:09:55.916Z,91.50
2022-11-24T01:12:23.814Z,91.50
2022-11-24T01:14:51.431Z,91.50
2022-11-24T01:17:19.437Z,91.40
2022-11-24T01:19:51.179Z,91.40
2022-11-24T01:22:19.154Z,91.20
2022-11-24T01:24:47.138Z,91.30
2022-11-24T01:27:15.070Z,91.50
2022-11-24T01:29:42.792Z,91.50
2022-11-24T01:32:10.894Z,91.50
2022-11-24T01:34:38.792Z,91.50
2022-11-24T01:37:06.896Z,91.60
2022-11-24T01:39:34.530Z,91.70
2022-11-24T01:42:02.835Z,91.80
2022-11-24T01:44:32.789Z,91.80
2022-11-24T01:47:18.635Z,91.80
2022-11-24T01:49:58.930Z,91.80
2022-11-24T01:52:34.416Z,92.00
2022-11-24T01:55:09.141Z,92.00
2022-11-24T01:57:42.491Z,92.00
2022-11-24T02:00:13.679Z,91.90
2022-11-24T02:02:44.128Z,91.80
2022-11-24T02:05:22.175Z,91.80
2022-11-24T02:07:53.241Z,91.70
2022-11-24T02:10:23.891Z,91.60
2022-11-24T02:12:55.131Z,91.60
2022-11-24T02:15:23.742Z,91.70
2022-11-24T02:17:51.675Z,91.80
2022-11-24T02:20:19.423Z,91.80
2022-11-24T02:23:01.306Z,91.70
2022-11-24T02:25:42.875Z,91.70
2022-11-24T02:28:15.803Z,91.60
2022-11-24T02:30:44.009Z,91.80
2022-11-24T02:33:13.608Z,91.90
2022-11-24T02:35:41.412Z,91.90
2022-11-24T02:38:14.078Z,91.70
2022-11-24T02:40:47.591Z,91.70
2022-11-24T02:43:21.191Z,91.90
2022-11-24T02:45:49.057Z,92.00
2022-11-24T02:48:18.001Z,92.10
2022-11-24T02:50:45.936Z,92.10
2022-11-24T02:53:14.094Z,92.10
2022-11-24T02:55:41.857Z,92.20
2022-11-24T02:58:09.740Z,92.20
2022-11-24T03:00:37.350Z,92.40
2022-11-24T03:03:05.598Z,92.40
2022-11-24T03:05:33.397Z,92.40
2022-11-24T03:08:01.337Z,92.40
2022-11-24T03:10:29.446Z,92.40
2022-11-24T03:12:57.668Z,92.30
2022-11-24T03:15:25.545Z,92.30
2022-11-24T03:17:56.863Z,92.20
2022-11-24T03:20:25.041Z,92.20
2022-11-24T03:22:53.490Z,92.20
2022-11-24T03:25:21.344Z,92.10
2022-11-24T03:27:49.229Z,92.00
2022-11-24T03:30:17.255Z,91.90
2022-11-24T03:32:45.661Z,91.80
2022-11-24T03:35:13.537Z,91.60
2022-11-24T03:37:41.501Z,91.40
2022-11-24T03:40:10.117Z,91.30
2022-11-24T03:42:38.431Z,91.00
2022-11-24T03:47:55.422Z,90.60
2022-11-24T03:50:23.025Z,90.30
2022-11-24T03:52:51.146Z,90.20
2022-11-24T03:55:18.895Z,90.00
2022-11-24T03:57:46.821Z,89.90
2022-11-24T04:00:15.069Z,89.70
2022-11-24T04:02:43.179Z,89.60
2022-11-24T04:05:11.222Z,89.40
2022-11-24T04:07:39.100Z,89.30
2022-11-24T04:10:07.480Z,89.10
2022-11-24T04:12:44.246Z,89.10
2022-11-24T04:15:20.176Z,89.20
2022-11-24T04:17:49.557Z,89.20
2022-11-24T04:20:17.968Z,89.20
2022-11-24T04:22:46.013Z,89.20
2022-11-24T04:25:13.899Z,89.20
2022-11-24T04:27:42.443Z,89.00
2022-11-24T04:30:10.520Z,88.90
2022-11-24T04:32:38.662Z,89.00
2022-11-24T04:35:06.656Z,89.00
2022-11-24T04:37:35.292Z,89.00
2022-11-24T04:40:03.212Z,89.00
2022-11-24T04:42:31.277Z,89.00
2022-11-24T04:44:58.997Z,89.00
2022-11-24T04:47:28.259Z,89.00
2022-11-24T04:49:56.089Z,89.10
2022-11-24T04:52:25.327Z,89.00
2022-11-24T04:54:53.249Z,89.00
2022-11-24T04:57:24.140Z,88.90
2022-11-24T04:59:52.849Z,89.00
2022-11-24T05:02:21.747Z,89.00
2022-11-24T05:04:49.570Z,89.10
2022-11-24T05:07:19.569Z,89.00
2022-11-24T05:10:01.992Z,89.10
2022-11-24T05:12:31.453Z,88.90
2022-11-24T05:14:59.957Z,88.90
2022-11-24T05:17:32.994Z,88.30
2022-11-24T05:20:00.779Z,88.30
2022-11-24T05:22:30.456Z,88.80
2022-11-24T05:24:58.324Z,89.10
2022-11-24T05:27:26.281Z,89.10
2022-11-24T05:29:54.014Z,89.00
2022-11-24T05:32:22.175Z,88.90
2022-11-24T05:34:49.995Z,89.10
2022-11-24T05:37:18.270Z,89.10
2022-11-24T05:39:46.300Z,89.10
2022-11-24T05:42:28.275Z,89.00
2022-11-24T05:44:56.148Z,88.90
2022-11-24T05:47:24.446Z,89.10
2022-11-24T05:49:52.396Z,89.00
2022-11-24T05:52:20.491Z,88.90
2022-11-24T05:54:48.107Z,88.90
2022-11-24T05:57:17.583Z,88.90
2022-11-24T05:59:45.297Z,88.80
2022-11-24T06:02:14.315Z,88.70
2022-11-24T06:04:41.725Z,88.70
2022-11-24T06:07:11.755Z,88.60
2022-11-24T06:09:41.026Z,88.60
2022-11-24T06:12:10.443Z,88.60
2022-11-24T06:14:38.264Z,88.60
2022-11-24T06:17:06.512Z,88.70
2022-11-24T06:19:37.475Z,88.70
2022-11-24T06:22:09.431Z,88.70
2022-11-24T06:24:37.194Z,88.80
2022-11-24T06:27:05.101Z,88.70
2022-11-24T06:29:32.483Z,88.70
2022-11-24T06:32:00.310Z,88.60
2022-11-24T06:34:27.897Z,88.60
2022-11-24T06:36:55.671Z,88.60
2022-11-24T06:39:22.956Z,88.50
2022-11-24T06:41:51.311Z,88.40
2022-11-24T06:44:19.430Z,88.40
2022-11-24T06:46:47.319Z,88.40
2022-11-24T06:49:14.785Z,88.30
2022-11-24T06:51:42.956Z,88.20
2022-11-24T06:54:15.032Z,88.00
2022-11-24T06:56:43.081Z,88.00
2022-11-24T06:59:18.126Z,88.00
2022-11-24T07:01:47.154Z,88.00
2022-11-24T07:04:15.961Z,88.00
2022-11-24T07:06:44.540Z,87.90
2022-11-24T07:09:13.700Z,87.90
2022-11-24T07:11:44.907Z,87.80
2022-11-24T07:14:12.741Z,87.70
2022-11-24T07:16:40.932Z,87.60
2022-11-24T07:19:11.017Z,87.70
2022-11-24T07:21:38.796Z,87.70
2022-11-24T07:24:06.558Z,87.80
2022-11-24T07:26:37.660Z,87.70
2022-11-24T07:29:05.934Z,87.70
2022-11-24T07:31:33.639Z,87.70
2022-11-24T07:34:01.523Z,87.60
2022-11-24T07:36:29.522Z,87.50
2022-11-24T07:38:57.197Z,87.40
2022-11-24T07:41:25.079Z,87.40
2022-11-24T07:43:53.102Z,87.40
2022-11-24T07:46:21.477Z,87.30
2022-11-24T07:48:48.882Z,87.00
2022-11-24T07:51:16.472Z,87.10
2022-11-24T07:53:45.384Z,86.90
2022-11-24T07:56:13.499Z,86.80
2022-11-24T07:58:41.093Z,86.70
2022-11-24T08:01:18.862Z,86.40
2022-11-24T08:03:47.636Z,86.60
2022-11-24T08:06:27.199Z,86.70
2022-11-24T08:08:58.983Z,86.60
2022-11-24T08:11:27.187Z,86.70
2022-11-24T08:13:54.657Z,86.30
2022-11-24T08:16:22.519Z,86.20
2022-11-24T08:18:51.987Z,86.20
2022-11-24T08:21:20.385Z,86.10
2022-11-24T08:23:47.685Z,86.30
2022-11-24T08:26:18.016Z,86.20
2022-11-24T08:28:46.878Z,86.10
2022-11-24T08:31:19.347Z,85.90
2022-11-24T08:33:47.906Z,86.20
2022-11-24T08:36:18.782Z,86.10
2022-11-24T08:38:47.316Z,86.00
2022-11-24T08:41:16.903Z,86.00
2022-11-24T08:43:44.540Z,85.90
2022-11-24T08:46:17.377Z,86.00
2022-11-24T08:48:52.440Z,85.70
2022-11-24T08:51:22.439Z,85.70
2022-11-24T08:53:53.946Z,85.80
2022-11-24T08:56:21.651Z,85.30
2022-11-24T08:58:49.410Z,85.20
2022-11-24T09:01:18.479Z,84.70
2022-11-24T09:03:51.071Z,84.60
2022-11-24T09:06:23.201Z,84.20
2022-11-24T09:08:52.050Z,84.20
2022-11-24T09:11:19.973Z,83.60
2022-11-24T09:13:48.013Z,83.60
2022-11-24T09:16:21.374Z,83.60
2022-11-24T09:19:05.144Z,83.50
2022-11-24T09:21:39.029Z,83.20
2022-11-24T09:24:08.292Z,83.00
2022-11-24T09:26:40.628Z,83.30
2022-11-24T09:29:11.439Z,83.20
2022-11-24T09:31:39.677Z,82.90
2022-11-24T09:34:09.181Z,82.90
2022-11-24T09:36:37.117Z,82.90
2022-11-24T09:39:04.572Z,82.60
2022-11-24T09:41:50.076Z,82.80
2022-11-24T09:44:27.619Z,82.90
2022-11-24T09:47:14.299Z,82.70
2022-11-24T09:49:55.508Z,82.90
2022-11-24T09:52:47.605Z,82.40
2022-11-24T09:55:24.291Z,82.20
2022-11-24T09:58:03.306Z,82.20
2022-11-24T10:00:31.272Z,82.00
2022-11-24T10:02:59.045Z,81.60
2022-11-24T10:05:30.386Z,81.50
2022-11-24T10:08:08.431Z,81.50
2022-11-24T10:10:49.949Z,81.40
2022-11-24T10:13:38.099Z,80.70
2022-11-24T10:16:26.908Z,81.10
2022-11-24T10:19:22.510Z,81.10
2022-11-24T10:22:02.088Z,81.20
2022-11-24T10:24:37.464Z,80.70
2022-11-24T10:27:18.304Z,80.30
2022-11-24T10:29:52.726Z,80.10
2022-11-24T10:32:37.692Z,80.50
2022-11-24T10:35:19.106Z,79.90
2022-11-24T10:38:00.965Z,80.30
2022-11-24T10:43:26.063Z,79.80
2022-11-24T10:45:55.550Z,79.60
2022-11-24T10:48:26.117Z,80.50
2022-11-24T10:51:14.527Z,80.30
2022-11-24T10:53:43.822Z,79.30
2022-11-24T10:56:11.841Z,78.60
2022-11-24T10:58:39.724Z,78.80
2022-11-24T11:01:13.518Z,77.70
2022-11-24T11:03:53.471Z,78.30
2022-11-24T11:06:26.016Z,76.90
2022-11-24T11:09:13.830Z,76.90
2022-11-24T11:11:42.996Z,77.50
2022-11-24T11:14:13.930Z,76.60
2022-11-24T11:16:43.707Z,76.20
2022-11-24T11:19:55.503Z,75.60
2022-11-24T11:22:29.092Z,75.90
2022-11-24T11:25:11.747Z,76.70
2022-11-24T11:27:41.277Z,76.70
2022-11-24T11:36:26.918Z,76.90
2022-11-24T11:38:54.856Z,76.60
2022-11-24T11:41:30.688Z,77.10
2022-11-24T11:44:17.183Z,77.60
2022-11-24T11:46:45.142Z,77.60
2022-11-24T11:49:13.797Z,77.60
2022-11-24T11:51:56.347Z,77.50
2022-11-24T11:54:30.839Z,77.60
2022-11-24T11:57:01.262Z,77.70
2022-11-24T11:59:51.739Z,78.00
2022-11-24T12:02:59.540Z,78.30
2022-11-24T12:05:46.551Z,78.40
2022-11-24T12:09:11.550Z,78.20
2022-11-24T12:11:48.677Z,78.20
2022-11-24T12:14:39.191Z,78.20
2022-11-24T12:17:39.603Z,77.80
2022-11-24T12:20:24.075Z,77.80
2022-11-24T12:23:28.631Z,78.30
2022-11-24T12:26:00.669Z,78.00
2022-11-24T12:28:38.186Z,78.20
2022-11-24T12:31:20.699Z,77.90
2022-11-24T12:34:26.521Z,78.50
2022-11-24T12:36:54.017Z,77.90
2022-11-24T12:39:30.631Z,78.10
2022-11-24T12:42:14.792Z,78.40
2022-11-24T12:44:57.007Z,78.80
2022-11-24T12:47:53.397Z,78.90
2022-11-24T12:50:24.017Z,78.70
2022-11-24T12:53:18.818Z,78.50
2022-11-24T12:55:47.067Z,78.20
2022-11-24T12:58:18.407Z,77.50
2022-11-24T13:01:03.829Z,78.00
2022-11-24T13:03:44.900Z,78.00
2022-11-24T13:06:24.238Z,77.20
2022-11-24T13:08:52.352Z,77.30
2022-11-24T13:11:22.952Z,77.30
2022-11-24T13:14:00.595Z,77.00
2022-11-24T13:16:36.083Z,77.20
2022-11-24T13:19:25.209Z,77.60
2022-11-24T13:22:06.956Z,77.20
2022-11-24T13:24:37.040Z,77.30
2022-11-24T13:27:16.896Z,77.40
2022-11-24T13:29:49.146Z,77.50
2022-11-24T13:32:21.351Z,78.00
2022-11-24T13:34:55.122Z,78.20
2022-11-24T13:37:31.592Z,78.30
2022-11-24T13:40:12.369Z,78.60
2022-11-24T13:43:03.369Z,78.80
2022-11-24T13:45:40.938Z,78.70
2022-11-24T13:48:22.990Z,78.60
2022-11-24T13:50:57.073Z,78.70
2022-11-24T13:53:36.644Z,78.50
2022-11-24T13:56:21.942Z,78.70
2022-11-24T13:58:57.009Z,78.90
2022-11-24T14:01:31.533Z,78.80
2022-11-24T14:06:52.584Z,78.50
2022-11-24T14:09:32.285Z,78.40
2022-11-24T14:12:11.644Z,78.80
2022-11-24T14:14:40.202Z,79.00
2022-11-24T14:17:20.333Z,79.10
2022-11-24T14:19:53.630Z,79.20
2022-11-24T14:22:22.968Z,79.30
2022-11-24T14:24:58.845Z,79.40
2022-11-24T14:27:32.466Z,79.10
2022-11-24T14:30:03.827Z,79.40
2022-11-24T14:32:31.343Z,79.30
2022-11-24T14:34:59.532Z,79.40
2022-11-24T14:37:27.398Z,79.60
2022-11-24T14:39:55.203Z,79.90
2022-11-24T14:42:25.515Z,80.30
2022-11-24T14:44:59.350Z,80.30
2022-11-24T14:47:36.409Z,80.50
2022-11-24T14:50:30.470Z,80.60
2022-11-24T14:52:58.991Z,80.90
2022-11-24T14:55:39.424Z,81.10
2022-11-24T14:58:27.855Z,81.30
2022-11-24T15:01:18.135Z,81.50
2022-11-24T15:03:46.395Z,81.70
2022-11-24T15:06:19.858Z,81.70
2022-11-24T15:08:49.488Z,81.70
2022-11-24T15:11:17.300Z,81.80
2022-11-24T15:13:54.959Z,81.70
2022-11-24T15:16:25.726Z,81.80
2022-11-24T15:19:01.641Z,81.90
2022-11-24T15:21:37.110Z,81.80
2022-11-24T15:24:07.723Z,82.00
2022-11-24T15:26:41.723Z,82.00
2022-11-24T15:29:12.871Z,82.40
2022-11-24T15:31:41.883Z,82.80
2022-11-24T15:34:14.553Z,82.90
2022-11-24T15:36:42.406Z,82.80
2022-11-24T15:39:09.851Z,83.00
2022-11-24T15:41:37.372Z,83.40
2022-11-24T15:44:05.202Z,83.50
2022-11-24T15:46:38.400Z,83.90
2022-11-24T15:49:06.835Z,83.70
2022-11-24T15:51:35.900Z,84.00
2022-11-24T15:54:03.677Z,84.20
2022-11-24T15:56:35.162Z,84.40
2022-11-24T15:59:03.237Z,84.50
2022-11-24T16:01:32.787Z,84.80
2022-11-24T16:04:01.559Z,85.00
2022-11-24T16:06:29.328Z,85.00
2022-11-24T16:08:58.197Z,85.10
2022-11-24T16:11:26.261Z,85.20
2022-11-24T16:13:54.581Z,85.40
2022-11-24T16:16:24.996Z,85.50
2022-11-24T16:18:53.047Z,85.40
2022-11-24T16:21:21.100Z,85.30
2022-11-24T16:23:48.877Z,85.20
2022-11-24T16:26:17.061Z,85.50
2022-11-24T16:28:46.110Z,85.90
2022-11-24T16:31:16.491Z,86.10
2022-11-24T16:33:46.472Z,86.10
2022-11-24T16:36:14.888Z,86.30
2022-11-24T16:38:42.304Z,86.30
2022-11-24T16:41:10.714Z,86.30
2022-11-24T16:43:39.080Z,86.40
2022-11-24T16:46:17.513Z,86.40
2022-11-24T16:48:47.056Z,86.50
2022-11-24T16:51:15.398Z,86.50
2022-11-24T16:53:43.200Z,86.50
2022-11-24T16:56:11.741Z,86.60
2022-11-24T16:58:40.978Z,86.60
2022-11-24T17:01:11.108Z,86.60
2022-11-24T17:03:39.357Z,86.60
2022-11-24T17:06:09.702Z,86.80
2022-11-24T17:08:40.097Z,86.90
2022-11-24T17:11:18.128Z,86.90
2022-11-24T17:13:47.465Z,87.00
2022-11-24T17:16:17.873Z,87.00
2022-11-24T17:18:45.916Z,87.10
2022-11-24T17:21:16.721Z,87.20
2022-11-24T17:23:44.318Z,87.30
2022-11-24T17:26:14.730Z,87.30
2022-11-24T17:28:42.800Z,87.30
2022-11-24T17:31:26.601Z,87.30
2022-11-24T17:33:56.895Z,87.40
2022-11-24T17:36:25.379Z,87.40
2022-11-24T17:38:53.562Z,87.50
2022-11-24T17:41:22.276Z,87.60
2022-11-24T17:43:56.074Z,87.70
2022-11-24T17:46:28.388Z,88.70
2022-11-24T17:48:56.498Z,90.30
2022-11-24T17:51:26.118Z,90.70
2022-11-24T17:53:55.215Z,90.50
2022-11-24T17:56:25.174Z,90.20
2022-11-24T17:58:55.423Z,89.90
2022-11-24T18:01:24.550Z,89.60
2022-11-24T18:03:53.762Z,89.20
2022-11-24T18:06:25.237Z,88.70
2022-11-24T18:08:54.307Z,88.20
2022-11-24T18:11:30.460Z,87.60
2022-11-24T18:14:02.652Z,87.00
2022-11-24T18:16:34.818Z,86.50
2022-11-24T18:19:09.307Z,85.90
2022-11-24T18:21:41.718Z,85.50
2022-11-24T18:24:11.276Z,85.10
2022-11-24T18:26:43.043Z,84.60
2022-11-24T18:29:11.722Z,84.30
2022-11-24T18:31:40.164Z,83.80
2022-11-24T18:34:08.047Z,83.40
2022-11-24T18:36:36.053Z,82.80
2022-11-24T18:39:06.137Z,82.10
2022-11-24T18:41:34.307Z,81.70
2022-11-24T18:44:03.283Z,81.20
2022-11-24T18:46:30.836Z,80.90
2022-11-24T18:48:59.482Z,79.70
2022-11-24T18:51:27.387Z,80.00
2022-11-24T18:53:55.563Z,78.80
2022-11-24T18:56:22.895Z,79.10
2022-11-24T18:58:55.308Z,79.10
2022-11-24T19:01:30.257Z,72.40
2022-11-24T19:04:00.834Z,72.90
2022-11-24T19:06:39.149Z,73.30
2022-11-24T19:09:11.404Z,74.60
2022-11-24T19:11:40.819Z,75.70
2022-11-24T19:14:12.158Z,76.70
2022-11-24T19:16:40.906Z,58.00
2022-11-24T19:19:10.350Z,66.80
2022-11-24T19:21:39.680Z,72.30
2022-11-24T19:24:12.069Z,75.70
2022-11-24T19:26:40.301Z,78.20
2022-11-24T19:29:08.663Z,80.00
2022-11-24T19:31:38.684Z,81.30
2022-11-24T19:34:08.421Z,82.40
2022-11-24T19:36:36.628Z,83.20
2022-11-24T19:39:05.478Z,83.70
2022-11-24T19:41:34.396Z,84.00
2022-11-24T19:44:02.329Z,84.70
2022-11-24T19:46:30.248Z,85.00
2022-11-24T19:49:02.886Z,85.20
2022-11-24T19:51:33.558Z,85.60
2022-11-24T19:54:02.477Z,85.70
2022-11-24T19:56:32.240Z,86.00
2022-11-24T19:59:00.532Z,86.10
2022-11-24T20:01:31.083Z,86.30
2022-11-24T20:04:02.105Z,86.30
2022-11-24T20:06:32.608Z,86.40
2022-11-24T20:09:01.381Z,86.40
2022-11-24T20:11:29.890Z,86.40
2022-11-24T20:13:58.293Z,86.40
2022-11-24T20:16:30.902Z,86.60
2022-11-24T20:19:05.891Z,86.50
2022-11-24T20:21:35.883Z,86.50
2022-11-24T20:24:05.426Z,86.60
2022-11-24T20:26:42.098Z,87.00
2022-11-24T20:29:14.493Z,89.50
2022-11-24T20:31:44.991Z,91.00
2022-11-24T20:34:13.770Z,91.60
2022-11-24T20:36:42.975Z,92.00
2022-11-24T20:39:24.159Z,92.10
2022-11-24T20:41:52.341Z,92.00
2022-11-24T20:44:22.243Z,92.00
2022-11-24T20:46:50.410Z,91.50
2022-11-24T20:49:20.623Z,91.10
2022-11-24T20:51:48.582Z,90.50
2022-11-24T20:54:18.058Z,90.00
2022-11-24T20:56:46.805Z,89.50
2022-11-24T20:59:18.128Z,89.00
2022-11-24T21:01:46.790Z,88.30
2022-11-24T21:04:21.942Z,87.70
2022-11-24T21:06:49.829Z,87.40
2022-11-24T21:09:17.801Z,86.60
2022-11-24T21:11:45.542Z,85.60
2022-11-24T21:14:14.059Z,84.70
2022-11-24T21:16:42.973Z,84.00
2022-11-24T21:19:13.657Z,83.50
2022-11-24T21:21:43.150Z,83.20
2022-11-24T21:24:13.894Z,82.30
2022-11-24T21:26:42.576Z,81.60
2022-11-24T21:29:13.332Z,80.80
2022-11-24T21:31:41.685Z,79.90
2022-11-24T21:34:09.999Z,79.00
2022-11-24T21:36:41.011Z,78.70
2022-11-24T21:39:12.415Z,79.00
2022-11-24T21:41:40.564Z,79.20
2022-11-24T21:44:08.953Z,78.70
2022-11-24T21:46:43.620Z,78.50
2022-11-24T21:49:13.593Z,78.20
2022-11-24T21:51:41.114Z,78.20
2022-11-24T21:54:09.038Z,78.30
2022-11-24T21:56:36.590Z,78.30
2022-11-24T21:59:04.230Z,78.20
2022-11-24T22:01:31.987Z,78.20
2022-11-24T22:03:59.963Z,78.10
2022-11-24T22:06:27.738Z,78.10
2022-11-24T22:08:55.708Z,76.90
2022-11-24T22:11:25.419Z,77.30
2022-11-24T22:13:53.263Z,77.10
2022-11-24T22:16:23.330Z,76.80
2022-11-24T22:18:51.922Z,76.90
2022-11-24T22:21:29.578Z,76.40
2022-11-24T22:23:57.652Z,75.30
2022-11-24T22:26:26.128Z,75.00
2022-11-24T22:28:55.053Z,74.20
2022-11-24T22:31:25.197Z,73.40
2022-11-24T22:33:54.666Z,72.60
2022-11-24T22:36:24.167Z,71.80
2022-11-24T22:38:56.683Z,71.70
2022-11-24T22:41:24.986Z,71.30
2022-11-24T22:43:53.736Z,71.30
2022-11-24T22:46:26.218Z,71.20
2022-11-24T22:48:55.216Z,71.20
2022-11-24T22:51:26.228Z,71.20
2022-11-24T22:53:56.666Z,71.10
2022-11-24T22:56:25.309Z,71.10
2022-11-24T22:58:52.889Z,71.40
2022-11-24T23:01:22.980Z,71.30
2022-11-24T23:03:54.441Z,71.10
2022-11-24T23:06:24.686Z,71.00
2022-11-24T23:08:53.154Z,70.50
2022-11-24T23:11:29.058Z,70.40
2022-11-24T23:14:03.536Z,70.40
2022-11-24T23:16:31.275Z,70.30
2022-11-24T23:18:59.029Z,70.30
2022-11-24T23:21:32.005Z,70.40
2022-11-24T23:24:02.398Z,70.30
2022-11-24T23:26:32.890Z,70.20
2022-11-24T23:29:01.057Z,70.20
2022-11-24T23:31:29.342Z,70.10
2022-11-24T23:34:02.360Z,69.70
2022-11-24T23:36:31.102Z,69.10
2022-11-24T23:39:08.775Z,68.90
2022-11-24T23:41:36.084Z,68.70
2022-11-24T23:44:03.842Z,68.40
2022-11-24T23:46:31.741Z,67.50
2022-11-24T23:48:59.872Z,66.70
2022-11-24T23:51:29.545Z,66.20
2022-11-24T23:56:39.214Z,65.80
2022-11-24T23:59:06.712Z,65.50
